createdAt,value
2023-03-27T00:01:34.119Z,8.20
2023-03-27T00:06:35.768Z,8.24
2023-03-27T00:11:37.815Z,8.24
2023-03-27T00:16:39.562Z,8.21
2023-03-27T00:21:41.888Z,8.15
2023-03-27T00:26:44.296Z,8.20
2023-03-27T00:31:46.370Z,8.24
2023-03-27T00:36:51.132Z,8.28
2023-03-27T00:41:55.448Z,8.21
2023-03-27T00:46:57.938Z,8.09
2023-03-27T00:52:02.993Z,7.99
2023-03-27T00:57:09.248Z,7.93
2023-03-27T01:02:12.747Z,7.91
2023-03-27T01:07:15.423Z,7.87
2023-03-27T01:12:34.182Z,7.84
2023-03-27T01:17:45.227Z,7.81
2023-03-27T01:23:10.110Z,7.80
2023-03-27T01:28:54.792Z,7.79
2023-03-27T01:34:27.182Z,7.75
2023-03-27T01:39:37.926Z,7.68
2023-03-27T01:45:03.144Z,7.66
2023-03-27T01:50:21.005Z,7.64
2023-03-27T01:55:29.168Z,7.58
2023-03-27T02:00:52.533Z,7.55
2023-03-27T02:06:00.202Z,7.54
2023-03-27T02:11:02.043Z,7.55
2023-03-27T02:16:07.744Z,7.52
2023-03-27T02:21:09.510Z,7.47
2023-03-27T02:26:13.119Z,7.47
2023-03-27T02:31:32.997Z,7.50
2023-03-27T02:36:58.001Z,7.50
2023-03-27T02:42:26.743Z,7.49
2023-03-27T02:47:41.591Z,7.49
2023-03-27T02:52:51.194Z,7.51
2023-03-27T02:57:59.640Z,7.51
2023-03-27T03:03:44.252Z,7.49
2023-03-27T03:09:06.075Z,7.48
2023-03-27T03:14:07.913Z,7.50
2023-03-27T03:19:09.660Z,7.54
2023-03-27T03:24:12.299Z,7.57
2023-03-27T03:29:14.237Z,7.56
2023-03-27T03:34:19.121Z,7.57
2023-03-27T03:39:22.194Z,7.61
2023-03-27T03:44:24.938Z,7.64
2023-03-27T03:49:28.099Z,7.61
2023-03-27T03:54:29.805Z,7.55
2023-03-27T03:59:31.786Z,7.49
2023-03-27T04:04:53.015Z,7.42
2023-03-27T04:09:55.052Z,7.38
2023-03-27T04:15:02.306Z,7.36
2023-03-27T04:20:36.928Z,7.33
2023-03-27T04:25:40.306Z,7.27
2023-03-27T04:30:44.784Z,7.24
2023-03-27T04:36:07.949Z,7.24
2023-03-27T04:41:29.752Z,7.21
2023-03-27T04:46:31.929Z,7.16
2023-03-27T04:51:38.527Z,7.12
2023-03-27T04:56:40.739Z,7.11
2023-03-27T05:01:42.712Z,7.10
2023-03-27T05:07:07.435Z,7.07
2023-03-27T05:12:09.475Z,7.05
2023-03-27T05:17:17.043Z,7.05
2023-03-27T05:22:19.413Z,7.08
2023-03-27T05:27:26.382Z,7.12
2023-03-27T05:32:30.139Z,7.12
2023-03-27T05:37:51.078Z,7.15
2023-03-27T05:43:22.718Z,7.22
2023-03-27T05:48:24.799Z,7.28
2023-03-27T05:53:28.029Z,7.31
2023-03-27T05:58:49.541Z,7.33
2023-03-27T06:03:56.052Z,7.37
2023-03-27T06:09:10.372Z,7.39
2023-03-27T06:14:13.517Z,7.45
2023-03-27T06:19:37.792Z,7.51
2023-03-27T06:24:39.685Z,7.55
2023-03-27T06:29:41.969Z,7.58
2023-03-27T06:34:44.326Z,7.63
2023-03-27T06:40:22.902Z,7.67
2023-03-27T06:45:29.874Z,7.70
2023-03-27T06:51:03.557Z,7.78
2023-03-27T06:56:06.674Z,7.86
2023-03-27T07:01:28.428Z,7.93
2023-03-27T07:06:54.500Z,7.97
2023-03-27T07:11:56.236Z,7.98
2023-03-27T07:16:58.530Z,7.99
2023-03-27T07:22:03.149Z,7.98
2023-03-27T07:27:07.783Z,7.97
2023-03-27T07:32:10.561Z,7.97
2023-03-27T07:37:16.078Z,7.91
2023-03-27T07:42:36.596Z,7.83
2023-03-27T07:47:43.372Z,7.76
2023-03-27T07:52:46.383Z,7.65
2023-03-27T07:58:00.959Z,7.56
2023-03-27T08:03:08.253Z,7.47
2023-03-27T08:08:11.225Z,7.31
2023-03-27T08:13:40.012Z,7.12
2023-03-27T08:18:42.831Z,6.96
2023-03-27T08:23:45.687Z,6.73
2023-03-27T08:29:17.029Z,6.34
2023-03-27T08:34:21.635Z,5.92
2023-03-27T08:39:25.769Z,5.57
2023-03-27T08:44:34.413Z,5.22
2023-03-27T08:50:07.227Z,4.86
2023-03-27T08:55:38.688Z,4.53
2023-03-27T09:01:04.803Z,4.33
2023-03-27T09:06:38.338Z,4.10
2023-03-27T09:11:56.639Z,3.84
2023-03-27T09:17:16.042Z,3.69
2023-03-27T09:22:27.540Z,3.57
2023-03-27T09:27:52.360Z,3.50
2023-03-27T09:33:10.754Z,3.45
2023-03-27T09:38:31.804Z,3.36
2023-03-27T09:44:02.581Z,3.16
2023-03-27T09:49:16.132Z,2.98
2023-03-27T09:54:24.765Z,2.89
2023-03-27T09:59:33.077Z,2.80
2023-03-27T10:05:00.126Z,2.78
2023-03-27T10:10:12.055Z,2.75
2023-03-27T10:15:35.101Z,2.67
2023-03-27T10:20:37.488Z,2.58
2023-03-27T10:25:50.286Z,2.50
2023-03-27T10:31:04.532Z,2.45
2023-03-27T10:36:12.154Z,2.44
2023-03-27T10:41:27.911Z,2.45
2023-03-27T10:46:32.249Z,2.46
2023-03-27T10:51:47.320Z,2.52
2023-03-27T10:57:10.326Z,2.64
2023-03-27T11:02:52.310Z,2.86
2023-03-27T11:08:04.350Z,3.01
2023-03-27T11:13:13.514Z,3.19
2023-03-27T11:18:21.633Z,3.19
2023-03-27T11:23:59.991Z,3.22
2023-03-27T11:29:24.240Z,3.27
2023-03-27T11:34:40.826Z,3.27
2023-03-27T11:40:09.400Z,3.27
2023-03-27T11:45:15.034Z,3.38
2023-03-27T11:50:43.325Z,3.51
2023-03-27T11:56:14.617Z,3.58
2023-03-27T12:01:27.784Z,3.55
2023-03-27T12:06:46.199Z,3.47
2023-03-27T12:12:00.131Z,3.43
2023-03-27T12:17:27.693Z,3.43
2023-03-27T12:22:53.757Z,3.43
2023-03-27T12:28:37.758Z,3.41
2023-03-27T12:34:26.730Z,3.40
2023-03-27T12:39:28.848Z,3.35
2023-03-27T12:45:03.316Z,3.27
2023-03-27T12:50:21.373Z,3.15
2023-03-27T12:55:34.369Z,3.13
2023-03-27T13:00:36.675Z,3.10
2023-03-27T13:06:03.723Z,3.12
2023-03-27T13:11:37.216Z,3.18
2023-03-27T13:16:56.154Z,3.15
2023-03-27T13:22:39.565Z,3.14
2023-03-27T13:28:12.742Z,3.25
2023-03-27T13:33:39.711Z,3.44
2023-03-27T13:38:47.014Z,3.63
2023-03-27T13:43:50.918Z,3.75
2023-03-27T13:49:42.382Z,3.78
2023-03-27T13:55:17.715Z,3.81
2023-03-27T14:01:09.412Z,3.89
2023-03-27T14:06:26.887Z,4.00
2023-03-27T14:11:37.310Z,4.11
2023-03-27T14:17:11.340Z,4.12
2023-03-27T14:22:30.074Z,4.12
2023-03-27T14:27:34.603Z,4.12
2023-03-27T14:32:37.084Z,4.09
2023-03-27T14:37:39.824Z,3.97
2023-03-27T14:42:55.965Z,3.81
2023-03-27T14:48:03.403Z,3.80
2023-03-27T14:53:16.743Z,3.90
2023-03-27T14:58:44.940Z,4.01
2023-03-27T15:03:47.789Z,4.10
2023-03-27T15:08:59.698Z,4.14
2023-03-27T15:14:25.977Z,4.16
2023-03-27T15:19:35.069Z,4.15
2023-03-27T15:24:43.194Z,4.18
2023-03-27T15:29:52.099Z,4.22
2023-03-27T15:34:58.089Z,4.26
2023-03-27T15:40:09.743Z,4.24
2023-03-27T15:45:14.747Z,4.21
2023-03-27T15:50:26.974Z,4.24
2023-03-27T15:55:55.364Z,4.22
2023-03-27T16:01:03.402Z,4.12
2023-03-27T16:06:30.837Z,4.02
2023-03-27T16:11:45.777Z,3.93
2023-03-27T16:16:48.175Z,3.85
2023-03-27T16:21:57.457Z,3.81
2023-03-27T16:26:59.342Z,3.76
2023-03-27T16:32:01.561Z,3.72
2023-03-27T16:37:03.517Z,3.70
2023-03-27T16:42:05.721Z,3.65
2023-03-27T16:47:07.832Z,3.59
2023-03-27T16:52:10.161Z,3.49
2023-03-27T16:57:11.899Z,3.37
2023-03-27T17:02:13.755Z,3.24
2023-03-27T17:07:15.915Z,3.12
2023-03-27T17:12:17.636Z,3.00
2023-03-27T17:17:19.439Z,2.83
2023-03-27T17:22:21.494Z,2.66
2023-03-27T17:27:24.219Z,2.50
2023-03-27T17:32:28.168Z,2.34
2023-03-27T17:37:30.820Z,2.21
2023-03-27T17:42:32.525Z,2.08
2023-03-27T17:47:34.417Z,1.96
2023-03-27T17:52:36.145Z,1.85
2023-03-27T17:57:41.639Z,1.74
2023-03-27T18:02:44.280Z,1.63
2023-03-27T18:07:46.125Z,1.50
2023-03-27T18:12:48.131Z,1.40
2023-03-27T18:17:49.858Z,1.28
2023-03-27T18:22:52.099Z,1.22
2023-03-27T18:27:53.772Z,1.20
2023-03-27T18:32:55.787Z,1.14
2023-03-27T18:37:58.145Z,1.10
2023-03-27T18:42:59.841Z,1.05
2023-03-27T18:48:01.668Z,1.00
2023-03-27T18:53:03.498Z,0.94
2023-03-27T18:58:06.790Z,0.87
2023-03-27T19:03:18.320Z,0.79
2023-03-27T19:08:21.698Z,0.68
2023-03-27T19:13:24.820Z,0.57
2023-03-27T19:18:30.473Z,0.47
2023-03-27T19:23:48.211Z,0.39
2023-03-27T19:28:51.395Z,0.34
2023-03-27T19:33:53.319Z,0.32
2023-03-27T19:38:55.450Z,0.31
2023-03-27T19:44:00.769Z,0.28
2023-03-27T19:49:03.242Z,0.21
2023-03-27T19:54:15.398Z,0.12
2023-03-27T19:59:28.211Z,0.03
2023-03-27T20:04:32.666Z,-0.03
2023-03-27T20:09:36.771Z,-0.04
2023-03-27T20:14:38.525Z,-0.05
2023-03-27T20:19:46.216Z,-0.06
2023-03-27T20:24:49.021Z,-0.08
2023-03-27T20:29:51.102Z,-0.13
2023-03-27T20:34:53.400Z,-0.21
2023-03-27T20:39:55.118Z,-0.29
2023-03-27T20:44:58.896Z,-0.37
2023-03-27T20:50:03.641Z,-0.40
2023-03-27T20:55:06.518Z,-0.40
2023-03-27T21:00:09.086Z,-0.44
2023-03-27T21:05:11.009Z,-0.50
2023-03-27T21:10:22.927Z,-0.59
2023-03-27T21:15:27.097Z,-0.68
2023-03-27T21:20:28.811Z,-0.77
2023-03-27T21:25:30.584Z,-0.88
2023-03-27T21:30:46.584Z,-1.00
2023-03-27T21:35:53.828Z,-1.14
2023-03-27T21:40:55.892Z,-1.25
2023-03-27T21:46:03.568Z,-1.36
2023-03-27T21:51:08.493Z,-1.41
2023-03-27T21:56:12.119Z,-1.41
2023-03-27T22:01:15.137Z,-1.40
2023-03-27T22:06:17.041Z,-1.42
2023-03-27T22:11:18.772Z,-1.49
2023-03-27T22:16:21.083Z,-1.58
2023-03-27T22:21:25.809Z,-1.68
2023-03-27T22:26:34.076Z,-1.77
2023-03-27T22:31:36.451Z,-1.80
2023-03-27T22:36:38.185Z,-1.78
2023-03-27T22:41:39.951Z,-1.75
2023-03-27T22:46:41.718Z,-1.71
2023-03-27T22:51:43.449Z,-1.73
2023-03-27T22:56:47.059Z,-1.80
2023-03-27T23:01:49.000Z,-1.87
2023-03-27T23:06:54.448Z,-1.91
2023-03-27T23:11:57.319Z,-1.89
2023-03-27T23:17:00.726Z,-1.83
2023-03-27T23:22:02.522Z,-1.80
2023-03-27T23:27:05.034Z,-1.82
2023-03-27T23:32:06.949Z,-1.87
2023-03-27T23:37:08.715Z,-1.94
2023-03-27T23:42:11.146Z,-2.02
2023-03-27T23:47:25.428Z,-2.04
2023-03-27T23:52:31.322Z,-1.99
2023-03-27T23:57:33.050Z,-1.93
